createdAt,value
2018-12-02T00:00:53.057Z,232.27
2018-12-02T00:03:31.537Z,258.03
2018-12-02T00:06:00.721Z,263.03
2018-12-02T00:08:29.841Z,238.57
2018-12-02T00:10:59.002Z,248.63
2018-12-02T00:13:28.083Z,238.67
2018-12-02T00:15:57.234Z,231.27
2018-12-02T00:18:26.394Z,251.20
2018-12-02T00:20:55.713Z,234.97
2018-12-02T00:23:24.801Z,216.50
2018-12-02T00:25:53.904Z,230.00
2018-12-02T00:28:23.076Z,248.27
2018-12-02T00:30:52.183Z,221.43
2018-12-02T00:33:21.181Z,247.13
2018-12-02T00:35:50.234Z,238.10
2018-12-02T00:38:19.332Z,231.97
2018-12-02T00:40:48.414Z,254.87
2018-12-02T00:43:17.462Z,236.60
2018-12-02T00:45:46.570Z,244.30
2018-12-02T00:48:15.629Z,216.03
2018-12-02T00:50:44.665Z,233.70
2018-12-02T00:53:15.403Z,248.90
2018-12-02T00:55:44.723Z,229.73
2018-12-02T00:58:13.895Z,225.53
2018-12-02T01:00:43.496Z,230.57
2018-12-02T01:03:12.559Z,235.80
2018-12-02T01:05:41.679Z,242.80
2018-12-02T01:08:10.781Z,262.60
2018-12-02T01:10:39.846Z,243.83
2018-12-02T01:13:10.115Z,261.40
2018-12-02T01:15:40.526Z,248.47
2018-12-02T01:18:09.901Z,226.53
2018-12-02T01:20:39.635Z,235.97
2018-12-02T01:23:08.663Z,257.97
2018-12-02T01:25:37.771Z,244.87
2018-12-02T01:28:07.376Z,228.20
2018-12-02T01:30:36.412Z,271.50
2018-12-02T01:33:05.531Z,243.63
2018-12-02T01:35:34.525Z,228.80
2018-12-02T01:38:03.645Z,243.87
2018-12-02T01:40:33.015Z,244.67
2018-12-02T01:45:54.983Z,249.67
2018-12-02T01:48:24.069Z,251.13
2018-12-02T01:51:02.977Z,253.37
2018-12-02T01:53:33.328Z,242.93
2018-12-02T01:56:02.488Z,265.87
2018-12-02T01:58:31.526Z,297.23
2018-12-02T02:01:00.663Z,275.13
2018-12-02T02:03:30.217Z,331.57
2018-12-02T02:06:01.627Z,289.07
2018-12-02T02:08:34.483Z,304.97
2018-12-02T02:11:04.463Z,279.53
2018-12-02T02:13:34.090Z,318.67
2018-12-02T02:16:04.057Z,594.00
2018-12-02T02:18:34.297Z,420.87
2018-12-02T02:21:03.393Z,307.13
2018-12-02T02:23:32.424Z,252.33
2018-12-02T02:26:01.450Z,261.00
2018-12-02T02:28:30.452Z,254.43
2018-12-02T02:30:59.492Z,247.07
2018-12-02T02:33:28.652Z,258.97
2018-12-02T02:35:58.021Z,239.40
2018-12-02T02:38:27.055Z,255.97
2018-12-02T02:40:56.149Z,260.13
2018-12-02T02:43:25.124Z,248.07
2018-12-02T02:45:54.248Z,218.67
2018-12-02T02:48:23.264Z,239.17
2018-12-02T02:50:52.277Z,237.77
2018-12-02T02:53:21.349Z,238.17
2018-12-02T02:55:50.345Z,237.80
2018-12-02T02:58:19.358Z,253.53
2018-12-02T03:00:48.396Z,231.33
2018-12-02T03:03:17.497Z,247.53
2018-12-02T03:05:46.485Z,260.73
2018-12-02T03:08:15.530Z,238.97
2018-12-02T03:10:44.539Z,252.33
2018-12-02T03:13:13.550Z,232.80
2018-12-02T03:15:42.670Z,251.77
2018-12-02T03:18:11.665Z,257.97
2018-12-02T03:20:40.711Z,243.07
2018-12-02T03:23:09.844Z,230.17
2018-12-02T03:25:38.810Z,269.67
2018-12-02T03:28:07.840Z,259.10
2018-12-02T03:30:36.908Z,236.03
2018-12-02T03:33:05.935Z,248.37
2018-12-02T03:35:34.986Z,260.10
2018-12-02T03:38:04.032Z,248.07
2018-12-02T03:40:33.045Z,244.23
2018-12-02T03:43:02.095Z,250.00
2018-12-02T03:45:31.215Z,246.03
2018-12-02T03:48:00.241Z,260.53
2018-12-02T03:50:29.258Z,232.10
2018-12-02T03:52:58.488Z,256.27
2018-12-02T03:55:27.466Z,243.80
2018-12-02T03:57:56.482Z,246.20
2018-12-02T04:00:26.213Z,237.90
2018-12-02T04:02:56.161Z,229.27
2018-12-02T04:05:26.085Z,257.00
2018-12-02T04:07:55.115Z,278.53
2018-12-02T04:10:24.122Z,266.27
2018-12-02T04:12:53.678Z,242.50
2018-12-02T04:15:23.899Z,229.70
2018-12-02T04:17:52.881Z,233.90
2018-12-02T04:20:22.265Z,244.90
2018-12-02T04:22:52.157Z,232.13
2018-12-02T04:25:22.661Z,249.90
2018-12-02T04:27:54.200Z,235.47
2018-12-02T04:30:25.857Z,234.00
2018-12-02T04:32:54.906Z,228.30
2018-12-02T04:35:25.028Z,254.07
2018-12-02T04:37:54.161Z,216.20
2018-12-02T04:40:23.361Z,227.70
2018-12-02T04:42:52.455Z,246.47
2018-12-02T04:45:21.537Z,232.27
2018-12-02T04:47:50.561Z,223.40
2018-12-02T04:50:21.638Z,241.50
2018-12-02T04:52:50.622Z,226.57
2018-12-02T04:55:19.850Z,250.50
2018-12-02T04:57:51.125Z,240.97
2018-12-02T05:00:20.803Z,231.70
2018-12-02T05:02:50.769Z,236.03
2018-12-02T05:05:23.974Z,220.33
2018-12-02T05:07:53.801Z,249.87
2018-12-02T05:10:22.921Z,227.07
2018-12-02T05:12:52.158Z,245.33
2018-12-02T05:15:22.041Z,236.80
2018-12-02T05:17:51.112Z,273.90
2018-12-02T05:20:21.057Z,223.50
2018-12-02T05:22:50.220Z,236.03
2018-12-02T05:25:19.642Z,251.47
2018-12-02T05:27:48.666Z,211.27
2018-12-02T05:30:18.742Z,221.83
2018-12-02T05:32:48.958Z,230.47
2018-12-02T05:35:17.984Z,218.53
2018-12-02T05:37:47.758Z,228.23
2018-12-02T05:40:21.912Z,223.43
2018-12-02T05:42:51.686Z,227.83
2018-12-02T05:45:21.261Z,229.23
2018-12-02T05:47:50.269Z,202.37
2018-12-02T05:50:23.323Z,223.80
2018-12-02T05:52:53.599Z,223.40
2018-12-02T05:55:30.709Z,231.67
2018-12-02T05:57:59.713Z,223.97
2018-12-02T06:00:28.739Z,219.80
2018-12-02T06:02:57.737Z,240.57
2018-12-02T06:05:26.817Z,222.43
2018-12-02T06:07:55.839Z,224.33
2018-12-02T06:10:24.839Z,238.50
2018-12-02T06:12:53.878Z,237.87
2018-12-02T06:15:23.144Z,222.57
2018-12-02T06:17:55.529Z,213.13
2018-12-02T06:20:25.680Z,215.10
2018-12-02T06:22:58.390Z,224.60
2018-12-02T06:25:27.426Z,215.73
2018-12-02T06:27:56.738Z,222.43
2018-12-02T06:30:28.982Z,219.57
2018-12-02T06:33:03.181Z,219.97
2018-12-02T06:35:32.210Z,219.70
2018-12-02T06:38:02.846Z,207.53
2018-12-02T06:40:31.906Z,199.90
2018-12-02T06:43:01.090Z,230.80
2018-12-02T06:45:32.144Z,217.53
2018-12-02T06:48:01.317Z,233.27
2018-12-02T06:50:30.317Z,233.90
2018-12-02T06:52:59.379Z,247.83
2018-12-02T06:55:40.406Z,227.73
2018-12-02T06:58:21.477Z,237.93
2018-12-02T07:00:56.450Z,227.50
2018-12-02T07:03:32.913Z,212.13
2018-12-02T07:06:01.966Z,222.83
2018-12-02T07:08:31.037Z,242.47
2018-12-02T07:11:00.109Z,236.83
2018-12-02T07:13:29.327Z,200.23
2018-12-02T07:15:58.619Z,223.20
2018-12-02T07:18:28.716Z,205.27
2018-12-02T07:21:01.387Z,214.03
2018-12-02T07:23:31.139Z,215.73
2018-12-02T07:26:00.798Z,210.50
2018-12-02T07:28:29.847Z,218.70
2018-12-02T07:30:58.908Z,204.50
2018-12-02T07:33:27.982Z,191.23
2018-12-02T07:35:57.051Z,208.40
2018-12-02T07:38:35.105Z,206.43
2018-12-02T07:41:06.135Z,208.40
2018-12-02T07:43:35.178Z,212.27
2018-12-02T07:46:04.558Z,205.83
2018-12-02T07:48:34.299Z,192.97
2018-12-02T07:51:03.406Z,196.03
2018-12-02T07:53:32.490Z,203.30
2018-12-02T07:56:01.569Z,202.67
2018-12-02T07:58:31.408Z,211.90
2018-12-02T08:01:00.788Z,188.67
2018-12-02T08:03:29.852Z,198.43
2018-12-02T08:06:03.864Z,202.03
2018-12-02T08:08:33.142Z,196.43
2018-12-02T08:11:02.249Z,188.33
2018-12-02T08:13:31.397Z,183.43
2018-12-02T08:16:00.495Z,206.77
2018-12-02T08:18:29.997Z,180.40
2018-12-02T08:20:59.050Z,187.93
2018-12-02T08:23:28.235Z,182.30
2018-12-02T08:25:57.300Z,186.73
2018-12-02T08:28:26.763Z,183.00
2018-12-02T08:30:56.757Z,191.03
2018-12-02T08:33:26.406Z,178.87
2018-12-02T08:35:55.496Z,197.53
2018-12-02T08:38:24.576Z,192.57
2018-12-02T08:40:53.732Z,194.63
2018-12-02T08:43:22.805Z,169.07
2018-12-02T08:45:53.053Z,167.53
2018-12-02T08:48:22.261Z,186.47
2018-12-02T08:50:52.748Z,173.03
2018-12-02T08:53:22.914Z,149.77
2018-12-02T08:55:54.265Z,178.13
2018-12-02T08:58:24.388Z,151.13
2018-12-02T09:00:53.952Z,170.50
2018-12-02T09:03:23.076Z,158.80
2018-12-02T09:05:52.157Z,171.93
2018-12-02T09:08:21.574Z,166.20
2018-12-02T09:10:51.795Z,154.57
2018-12-02T09:13:21.248Z,164.77
2018-12-02T09:15:50.350Z,174.03
2018-12-02T09:18:19.377Z,166.60
2018-12-02T09:20:49.282Z,158.30
2018-12-02T09:23:19.056Z,161.53
2018-12-02T09:25:48.066Z,147.20
2018-12-02T09:28:17.409Z,147.17
2018-12-02T09:30:46.576Z,154.83
2018-12-02T09:33:18.262Z,148.67
2018-12-02T09:35:47.289Z,145.30
2018-12-02T09:38:16.323Z,154.80
2018-12-02T09:40:46.740Z,143.70
2018-12-02T09:43:15.855Z,153.50
2018-12-02T09:45:48.359Z,151.00
2018-12-02T09:48:17.467Z,147.37
2018-12-02T09:50:46.654Z,151.27
2018-12-02T09:53:16.372Z,162.80
2018-12-02T09:55:47.063Z,156.53
2018-12-02T09:58:23.891Z,133.97
2018-12-02T10:00:53.416Z,134.57
2018-12-02T10:03:22.547Z,140.27
2018-12-02T10:05:51.616Z,137.50
2018-12-02T10:08:20.667Z,152.00
2018-12-02T10:10:49.675Z,140.07
2018-12-02T10:13:20.269Z,152.63
2018-12-02T10:15:49.305Z,128.67
2018-12-02T10:18:18.346Z,127.60
2018-12-02T10:20:47.445Z,134.13
2018-12-02T10:23:16.534Z,126.53
2018-12-02T10:25:45.628Z,129.37
2018-12-02T10:28:14.662Z,117.67
2018-12-02T10:30:43.733Z,118.20
2018-12-02T10:33:13.767Z,115.67
2018-12-02T10:35:43.507Z,113.07
2018-12-02T10:38:12.570Z,108.80
2018-12-02T10:40:41.921Z,110.67
2018-12-02T10:43:11.091Z,107.23
2018-12-02T10:45:40.259Z,103.27
2018-12-02T10:48:10.622Z,107.17
2018-12-02T10:50:39.918Z,113.83
2018-12-02T10:53:15.638Z,103.87
2018-12-02T10:55:45.913Z,104.32
2018-12-02T10:58:20.470Z,99.67
2018-12-02T11:00:54.951Z,86.13
2018-12-02T11:03:24.174Z,83.20
2018-12-02T11:05:53.191Z,90.25
2018-12-02T11:08:22.280Z,86.72
2018-12-02T11:10:51.398Z,71.55
2018-12-02T11:13:20.455Z,76.15
2018-12-02T11:15:49.859Z,74.85
2018-12-02T11:18:19.048Z,74.07
2018-12-02T11:20:48.162Z,77.10
2018-12-02T11:23:17.220Z,72.70
2018-12-02T11:25:46.328Z,65.30
2018-12-02T11:28:15.364Z,67.53
2018-12-02T11:30:44.711Z,65.15
2018-12-02T11:33:14.173Z,65.12
2018-12-02T11:35:43.303Z,61.75
2018-12-02T11:38:12.478Z,59.73
2018-12-02T11:40:42.022Z,65.47
2018-12-02T11:43:11.435Z,61.48
2018-12-02T11:45:40.539Z,54.18
2018-12-02T11:48:12.941Z,55.73
2018-12-02T11:50:42.021Z,62.43
2018-12-02T11:53:11.033Z,63.95
2018-12-02T11:55:40.160Z,64.05
2018-12-02T11:58:09.251Z,60.03
2018-12-02T12:00:39.685Z,61.42
2018-12-02T12:03:09.417Z,57.62
2018-12-02T12:05:42.396Z,59.85
2018-12-02T12:08:12.307Z,60.35
2018-12-02T12:10:41.375Z,56.60
2018-12-02T12:13:10.535Z,58.25
2018-12-02T12:15:39.651Z,58.92
2018-12-02T12:18:09.541Z,57.10
2018-12-02T12:20:42.745Z,54.88
2018-12-02T12:23:20.181Z,59.60
2018-12-02T12:25:49.354Z,56.33
2018-12-02T12:28:18.437Z,55.70
2018-12-02T12:30:47.629Z,51.02
2018-12-02T12:33:16.716Z,52.35
2018-12-02T12:35:47.538Z,50.25
2018-12-02T12:38:16.660Z,54.88
2018-12-02T12:40:46.905Z,53.00
2018-12-02T12:43:24.603Z,54.85
2018-12-02T12:45:53.759Z,56.58
2018-12-02T12:48:23.226Z,62.25
2018-12-02T12:50:52.456Z,48.10
2018-12-02T12:53:21.703Z,59.38
2018-12-02T12:55:51.285Z,50.13
2018-12-02T12:58:20.465Z,47.50
2018-12-02T13:00:49.965Z,47.58
2018-12-02T13:03:19.053Z,47.80
2018-12-02T13:05:48.808Z,48.58
2018-12-02T13:08:17.955Z,47.93
2018-12-02T13:10:46.959Z,48.83
2018-12-02T13:13:15.993Z,52.33
2018-12-02T13:15:45.097Z,50.07
2018-12-02T13:18:14.282Z,52.60
2018-12-02T13:20:52.216Z,51.00
2018-12-02T13:23:21.585Z,50.35
2018-12-02T13:25:50.735Z,48.80
2018-12-02T13:28:19.791Z,49.17
2018-12-02T13:30:48.919Z,55.07
2018-12-02T13:33:17.973Z,51.00
2018-12-02T13:35:47.031Z,49.73
2018-12-02T13:38:16.098Z,53.87
2018-12-02T13:40:46.649Z,54.57
2018-12-02T13:43:20.315Z,50.83
2018-12-02T13:45:50.053Z,48.83
2018-12-02T13:48:19.215Z,45.53
2018-12-02T13:50:48.251Z,51.57
2018-12-02T13:53:17.335Z,48.63
2018-12-02T13:55:46.479Z,47.45
2018-12-02T13:58:15.530Z,50.67
2018-12-02T14:00:44.627Z,47.23
2018-12-02T14:03:14.695Z,50.97
2018-12-02T14:05:48.702Z,51.27
2018-12-02T14:08:17.965Z,57.70
2018-12-02T14:10:47.016Z,61.98
2018-12-02T14:13:22.574Z,51.80
2018-12-02T14:16:00.593Z,57.57
2018-12-02T14:18:38.588Z,55.83
2018-12-02T14:21:10.343Z,54.20
2018-12-02T14:23:41.105Z,59.70
2018-12-02T14:26:11.990Z,53.93
2018-12-02T14:28:49.630Z,57.13
2018-12-02T14:31:19.485Z,63.83
2018-12-02T14:33:48.493Z,54.63
2018-12-02T14:36:17.565Z,73.77
2018-12-02T14:38:46.915Z,63.03
2018-12-02T14:41:16.033Z,63.83
2018-12-02T14:43:45.127Z,58.07
2018-12-02T14:46:14.235Z,66.93
2018-12-02T14:48:43.335Z,60.13
2018-12-02T14:51:12.409Z,74.53
2018-12-02T14:53:41.537Z,69.50
2018-12-02T14:56:10.677Z,59.80
2018-12-02T14:58:39.686Z,66.30
2018-12-02T15:01:08.806Z,63.73
2018-12-02T15:03:37.894Z,57.70
2018-12-02T15:06:06.997Z,60.73
2018-12-02T15:08:36.164Z,62.77
2018-12-02T15:11:05.433Z,62.83
2018-12-02T15:13:34.458Z,66.93
2018-12-02T15:16:03.747Z,67.13
2018-12-02T15:18:32.897Z,70.30
2018-12-02T15:21:02.036Z,74.73
2018-12-02T15:23:31.166Z,69.20
2018-12-02T15:26:00.207Z,81.10
2018-12-02T15:28:32.084Z,91.43
2018-12-02T15:31:01.546Z,92.37
2018-12-02T15:33:30.670Z,77.73
2018-12-02T15:35:59.736Z,72.17
2018-12-02T15:38:28.764Z,83.63
2018-12-02T15:40:57.962Z,79.10
2018-12-02T15:43:27.046Z,68.90
2018-12-02T15:45:56.009Z,73.33
2018-12-02T15:48:25.117Z,81.77
2018-12-02T15:50:54.217Z,68.40
2018-12-02T15:53:23.537Z,67.67
2018-12-02T15:55:52.606Z,74.23
2018-12-02T15:58:22.200Z,80.47
2018-12-02T16:00:51.272Z,72.67
2018-12-02T16:03:20.537Z,66.73
2018-12-02T16:05:49.812Z,65.53
2018-12-02T16:08:18.922Z,73.50
2018-12-02T16:10:48.035Z,70.73
2018-12-02T16:13:17.482Z,68.90
2018-12-02T16:15:46.572Z,73.47
2018-12-02T16:18:16.772Z,68.13
2018-12-02T16:20:47.543Z,69.60
2018-12-02T16:23:21.815Z,65.57
2018-12-02T16:25:50.932Z,62.00
2018-12-02T16:28:20.232Z,73.45
2018-12-02T16:30:50.946Z,63.53
2018-12-02T16:33:20.100Z,64.63
2018-12-02T16:35:50.916Z,63.63
2018-12-02T16:38:19.928Z,66.10
2018-12-02T16:40:48.959Z,61.17
2018-12-02T16:43:18.064Z,66.03
2018-12-02T16:45:47.115Z,70.10
2018-12-02T16:48:17.600Z,74.93
2018-12-02T16:50:47.777Z,62.80
2018-12-02T16:53:22.338Z,62.23
2018-12-02T16:56:00.356Z,68.00
2018-12-02T16:58:38.335Z,67.40
2018-12-02T17:01:16.315Z,69.80
2018-12-02T17:03:45.337Z,70.37
2018-12-02T17:06:14.445Z,64.03
2018-12-02T17:08:43.529Z,73.87
2018-12-02T17:11:13.279Z,68.07
2018-12-02T17:13:41.736Z,68.33
2018-12-02T17:16:10.894Z,68.80
2018-12-02T17:18:39.943Z,71.43
2018-12-02T17:21:09.166Z,72.73
2018-12-02T17:23:38.348Z,73.13
2018-12-02T17:26:07.393Z,62.77
2018-12-02T17:28:36.518Z,71.33
2018-12-02T17:31:11.125Z,70.17
2018-12-02T17:33:40.253Z,81.63
2018-12-02T17:36:09.423Z,75.77
2018-12-02T17:38:38.515Z,74.27
2018-12-02T17:41:09.595Z,69.03
2018-12-02T17:43:38.746Z,69.33
2018-12-02T17:46:08.358Z,75.10
2018-12-02T17:48:37.459Z,83.77
2018-12-02T17:51:07.538Z,72.10
2018-12-02T17:53:37.757Z,71.47
2018-12-02T17:56:07.048Z,72.27
2018-12-02T17:58:36.220Z,71.43
2018-12-02T18:01:06.171Z,75.27
2018-12-02T18:03:35.697Z,70.23
2018-12-02T18:06:06.079Z,77.43
2018-12-02T18:08:35.149Z,70.00
2018-12-02T18:11:04.256Z,74.70
2018-12-02T18:13:33.599Z,76.87
2018-12-02T18:16:02.679Z,75.80
2018-12-02T18:18:31.743Z,74.70
2018-12-02T18:21:00.783Z,82.47
2018-12-02T18:23:29.906Z,75.83
2018-12-02T18:25:58.976Z,78.95
2018-12-02T18:28:28.105Z,68.87
2018-12-02T18:30:57.174Z,76.20
2018-12-02T18:33:26.587Z,78.40
2018-12-02T18:36:01.067Z,70.20
2018-12-02T18:38:32.332Z,75.23
2018-12-02T18:41:10.497Z,72.17
2018-12-02T18:43:39.487Z,77.90
2018-12-02T18:46:09.759Z,69.93
2018-12-02T18:48:40.424Z,60.93
2018-12-02T18:51:09.463Z,72.47
2018-12-02T18:53:39.744Z,71.63
2018-12-02T18:56:08.880Z,74.27
2018-12-02T18:58:37.902Z,70.53
2018-12-02T19:01:07.045Z,81.17
2018-12-02T19:03:36.092Z,81.03
2018-12-02T19:06:05.824Z,68.67
2018-12-02T19:08:35.022Z,76.97
2018-12-02T19:11:04.235Z,82.67
2018-12-02T19:13:33.277Z,77.90
2018-12-02T19:16:02.417Z,75.20
2018-12-02T19:18:31.468Z,69.53
2018-12-02T19:21:06.151Z,70.40
2018-12-02T19:23:35.209Z,72.63
2018-12-02T19:26:04.260Z,80.10
2018-12-02T19:28:33.345Z,71.57
2018-12-02T19:31:02.459Z,68.77
2018-12-02T19:33:31.620Z,69.73
2018-12-02T19:36:11.134Z,64.53
2018-12-02T19:38:40.314Z,67.83
2018-12-02T19:41:17.971Z,72.47
2018-12-02T19:43:47.944Z,67.37
2018-12-02T19:46:16.935Z,64.80
2018-12-02T19:48:46.094Z,63.77
2018-12-02T19:51:15.456Z,71.73
2018-12-02T19:53:44.491Z,69.53
2018-12-02T19:56:13.611Z,70.43
2018-12-02T19:58:42.688Z,67.93
2018-12-02T20:01:11.695Z,81.50
2018-12-02T20:03:40.829Z,69.30
2018-12-02T20:06:09.928Z,70.87
2018-12-02T20:08:39.838Z,78.20
2018-12-02T20:11:08.884Z,74.47
2018-12-02T20:13:37.926Z,70.70
2018-12-02T20:16:11.199Z,72.23
2018-12-02T20:18:40.273Z,71.90
2018-12-02T20:21:09.995Z,73.30
2018-12-02T20:23:43.250Z,73.70
2018-12-02T20:26:12.562Z,67.73
2018-12-02T20:28:44.224Z,74.17
2018-12-02T20:31:20.093Z,69.03
2018-12-02T20:33:49.276Z,82.50
2018-12-02T20:36:18.275Z,72.40
2018-12-02T20:38:47.386Z,82.80
2018-12-02T20:41:16.517Z,81.40
2018-12-02T20:43:45.617Z,78.73
2018-12-02T20:46:14.666Z,64.70
2018-12-02T20:48:43.782Z,65.80
2018-12-02T20:51:12.851Z,67.73
2018-12-02T20:53:41.946Z,62.90
2018-12-02T20:56:11.127Z,75.23
2018-12-02T20:58:42.215Z,71.33
2018-12-02T21:01:11.270Z,69.97
2018-12-02T21:03:43.266Z,68.97
2018-12-02T21:06:16.926Z,66.83
2018-12-02T21:08:46.002Z,74.83
2018-12-02T21:11:15.251Z,74.50
2018-12-02T21:13:45.261Z,73.50
2018-12-02T21:16:14.326Z,65.20
2018-12-02T21:18:43.407Z,78.83
2018-12-02T21:21:12.507Z,79.73
2018-12-02T21:23:41.514Z,82.50
2018-12-02T21:26:11.426Z,76.13
2018-12-02T21:28:41.267Z,84.40
2018-12-02T21:31:10.566Z,78.63
2018-12-02T21:33:39.686Z,82.03
2018-12-02T21:36:08.808Z,83.07
2018-12-02T21:38:38.006Z,74.27
2018-12-02T21:41:07.086Z,72.97
2018-12-02T21:43:36.155Z,72.60
2018-12-02T21:46:05.669Z,71.63
2018-12-02T21:48:37.765Z,80.10
2018-12-02T21:51:08.006Z,80.20
2018-12-02T21:53:36.994Z,82.30
2018-12-02T21:56:06.451Z,72.30
2018-12-02T21:58:35.511Z,79.30
2018-12-02T22:01:08.746Z,68.70
2018-12-02T22:03:37.831Z,74.77
2018-12-02T22:06:11.773Z,78.00
2018-12-02T22:08:40.806Z,77.23
2018-12-02T22:11:09.918Z,91.20
2018-12-02T22:13:43.452Z,82.30
2018-12-02T22:16:08.105Z,77.83
2018-12-02T22:18:37.171Z,87.00
2018-12-02T22:21:06.368Z,76.40
2018-12-02T22:23:35.469Z,80.53
2018-12-02T22:26:04.527Z,71.93
2018-12-02T22:28:33.599Z,83.67
2018-12-02T22:31:02.686Z,82.23
2018-12-02T22:33:31.806Z,75.07
2018-12-02T22:36:00.871Z,79.77
2018-12-02T22:38:29.975Z,77.77
2018-12-02T22:40:59.066Z,79.37
2018-12-02T22:43:28.188Z,71.83
2018-12-02T22:45:57.245Z,80.63
2018-12-02T22:48:26.367Z,80.93
2018-12-02T22:50:55.454Z,71.50
2018-12-02T22:53:24.962Z,78.17
2018-12-02T22:55:53.976Z,85.13
2018-12-02T22:58:23.051Z,77.43
2018-12-02T23:00:56.297Z,85.67
2018-12-02T23:03:25.382Z,83.70
2018-12-02T23:05:54.404Z,75.00
2018-12-02T23:08:23.436Z,76.57
2018-12-02T23:10:52.617Z,83.97
2018-12-02T23:13:21.653Z,86.43
2018-12-02T23:15:50.993Z,87.30
2018-12-02T23:18:20.125Z,81.47
2018-12-02T23:20:49.103Z,82.67
2018-12-02T23:23:18.203Z,73.00
2018-12-02T23:25:47.212Z,77.97
2018-12-02T23:28:16.234Z,71.57
2018-12-02T23:30:45.331Z,85.23
2018-12-02T23:33:14.447Z,83.13
2018-12-02T23:35:43.672Z,82.67
2018-12-02T23:38:12.655Z,86.73
2018-12-02T23:40:41.690Z,68.97
2018-12-02T23:43:10.687Z,76.90
2018-12-02T23:45:39.845Z,72.43
2018-12-02T23:48:08.947Z,78.63
2018-12-02T23:50:38.032Z,73.00
2018-12-02T23:53:07.204Z,73.23
2018-12-02T23:55:36.267Z,79.43
2018-12-02T23:58:05.544Z,71.00
